IBE0436 LEBB-LEMD
Flight info
| Callsign | IBE0436 |
|---|---|
| Flight time | N/A |
| Altitude | 25000 |
| Route | AMTOS L14 NEA N864 NONTU |
| Aircraft | A321/M-SDE3FGHIRWY/LB1 |
Departure
| Time | N/A |
|---|---|
| Airport | Bilbao Airport (LEBB) |
Arrival
| Time | 2026-05-05 09:53 |
|---|---|
| Airport | Adolfo Suárez Madrid–Barajas Airport (LEMD) |
| Time | Latitude | Longitude | Altitude | Speed | Heading |
|---|---|---|---|---|---|
| 2026-05-05 09:38 | 41.47685 | -4.17150 | 25007 ft | 432 kts | 189° |
| 2026-05-05 09:38 | 41.44696 | -4.17487 | 25017 ft | 430 kts | 189° |
| 2026-05-05 09:39 | 41.41712 | -4.17823 | 25020 ft | 430 kts | 189° |
| 2026-05-05 09:39 | 41.38726 | -4.18157 | 25021 ft | 431 kts | 189° |
| 2026-05-05 09:39 | 41.35740 | -4.18492 | 25027 ft | 431 kts | 189° |
| 2026-05-05 09:39 | 41.32754 | -4.18826 | 25033 ft | 430 kts | 189° |
| 2026-05-05 09:40 | 41.29775 | -4.19158 | 25033 ft | 429 kts | 189° |
| 2026-05-05 09:40 | 41.26810 | -4.19481 | 24990 ft | 424 kts | 189° |
| 2026-05-05 09:40 | 41.23909 | -4.19685 | 24749 ft | 413 kts | 188° |
| 2026-05-05 09:40 | 41.20985 | -4.19869 | 24081 ft | 425 kts | 187° |
| 2026-05-05 09:41 | 41.18026 | -4.20050 | 23306 ft | 425 kts | 187° |
| 2026-05-05 09:41 | 41.15088 | -4.20229 | 22635 ft | 420 kts | 187° |
| 2026-05-05 09:41 | 41.12188 | -4.20405 | 22057 ft | 414 kts | 187° |
| 2026-05-05 09:41 | 41.09332 | -4.20577 | 21509 ft | 408 kts | 187° |
| 2026-05-05 09:42 | 41.06518 | -4.20746 | 20980 ft | 401 kts | 187° |
| 2026-05-05 09:42 | 41.03748 | -4.20913 | 20441 ft | 395 kts | 187° |
| 2026-05-05 09:42 | 41.01058 | -4.21077 | 19932 ft | 389 kts | 187° |
| 2026-05-05 09:42 | 40.98363 | -4.21240 | 19412 ft | 384 kts | 187° |
| 2026-05-05 09:43 | 40.95706 | -4.21404 | 18855 ft | 381 kts | 187° |
| 2026-05-05 09:43 | 40.93071 | -4.21554 | 18278 ft | 379 kts | 185° |
| 2026-05-05 09:43 | 40.90426 | -4.21092 | 17526 ft | 397 kts | 167° |
| 2026-05-05 09:43 | 40.87805 | -4.19474 | 16746 ft | 435 kts | 150° |
| 2026-05-05 09:44 | 40.85412 | -4.16992 | 15926 ft | 437 kts | 142° |
| 2026-05-05 09:44 | 40.83092 | -4.14398 | 15053 ft | 436 kts | 142° |
| 2026-05-05 09:44 | 40.80757 | -4.11856 | 14200 ft | 434 kts | 143° |
| 2026-05-05 09:44 | 40.78406 | -4.09363 | 13277 ft | 433 kts | 143° |
| 2026-05-05 09:45 | 40.76076 | -4.06865 | 12412 ft | 427 kts | 141° |
| 2026-05-05 09:45 | 40.73854 | -4.04332 | 11774 ft | 418 kts | 140° |
| 2026-05-05 09:45 | 40.71694 | -4.01832 | 11228 ft | 408 kts | 140° |
| 2026-05-05 09:45 | 40.69591 | -3.99389 | 10712 ft | 398 kts | 140° |
| 2026-05-05 09:46 | 40.67536 | -3.97002 | 10240 ft | 389 kts | 140° |
| 2026-05-05 09:46 | 40.65537 | -3.94668 | 9910 ft | 385 kts | 140° |
| 2026-05-05 09:46 | 40.63540 | -3.92337 | 9535 ft | 381 kts | 140° |
| 2026-05-05 09:46 | 40.61560 | -3.90031 | 9187 ft | 378 kts | 140° |
| 2026-05-05 09:47 | 40.59597 | -3.87768 | 8819 ft | 376 kts | 140° |
| 2026-05-05 09:47 | 40.57647 | -3.85501 | 8477 ft | 371 kts | 137° |
| 2026-05-05 09:47 | 40.55802 | -3.83096 | 8138 ft | 375 kts | 136° |
| 2026-05-05 09:47 | 40.53988 | -3.80661 | 7831 ft | 368 kts | 135° |
| 2026-05-05 09:48 | 40.52227 | -3.78297 | 7489 ft | 356 kts | 135° |
| 2026-05-05 09:48 | 40.50513 | -3.76002 | 7125 ft | 347 kts | 135° |
| 2026-05-05 09:48 | 40.48843 | -3.73766 | 6745 ft | 339 kts | 135° |
| 2026-05-05 09:48 | 40.47233 | -3.71546 | 6370 ft | 332 kts | 133° |
| 2026-05-05 09:49 | 40.45752 | -3.69255 | 5981 ft | 326 kts | 131° |
| 2026-05-05 09:49 | 40.44322 | -3.66979 | 5591 ft | 321 kts | 130° |
| 2026-05-05 09:49 | 40.42924 | -3.64735 | 5203 ft | 314 kts | 130° |
| 2026-05-05 09:49 | 40.41549 | -3.62534 | 4819 ft | 309 kts | 130° |
| 2026-05-05 09:50 | 40.40203 | -3.60370 | 4412 ft | 303 kts | 130° |
| 2026-05-05 09:50 | 40.38887 | -3.58258 | 4042 ft | 291 kts | 130° |
| 2026-05-05 09:50 | 40.37905 | -3.56075 | 3949 ft | 271 kts | 105° |
| 2026-05-05 09:50 | 40.37932 | -3.53724 | 3884 ft | 254 kts | 68° |
| 2026-05-05 09:51 | 40.38957 | -3.51989 | 3484 ft | 234 kts | 26° |
| 2026-05-05 09:51 | 40.40422 | -3.51494 | 3235 ft | 208 kts | 1° |
| 2026-05-05 09:51 | 40.41788 | -3.51574 | 3044 ft | 182 kts | 345° |
| 2026-05-05 09:51 | 40.42898 | -3.52072 | 2947 ft | 156 kts | 334° |
| 2026-05-05 09:52 | 40.43802 | -3.52839 | 2643 ft | 154 kts | 322° |
| 2026-05-05 09:52 | 40.44637 | -3.53654 | 2423 ft | 146 kts | 317° |
| 2026-05-05 09:52 | 40.45436 | -3.54516 | 2217 ft | 148 kts | 319° |
| 2026-05-05 09:52 | 40.46255 | -3.55341 | 2041 ft | 148 kts | 320° |
| 2026-05-05 09:53 | 40.47022 | -3.56114 | 1984 ft | 126 kts | 321° |
| 2026-05-05 09:53 | 40.47638 | -3.56742 | 2002 ft | 100 kts | 322° |
| 2026-05-05 09:53 | 40.48131 | -3.57244 | 2011 ft | 81 kts | 321° |
| 2026-05-05 09:53 | 40.48439 | -3.57608 | 1999 ft | 33 kts | 292° |
| 2026-05-05 09:54 | 40.48512 | -3.57902 | 2001 ft | 35 kts | 277° |
| 2026-05-05 09:54 | 40.48509 | -3.58214 | 2013 ft | 32 kts | 272° |
| 2026-05-05 09:54 | 40.48512 | -3.58522 | 2025 ft | 36 kts | 270° |
| 2026-05-05 09:54 | 40.48505 | -3.58849 | 2028 ft | 32 kts | 283° |
| 2026-05-05 09:55 | 40.48504 | -3.59157 | 2028 ft | 30 kts | 269° |
| 2026-05-05 09:55 | 40.48593 | -3.59256 | 2035 ft | 22 kts | 359° |
| 2026-05-05 09:55 | 40.48686 | -3.59263 | 2037 ft | 6 kts | 356° |
| 2026-05-05 09:55 | 40.48713 | -3.59222 | 2030 ft | 9 kts | 81° |
| 2026-05-05 09:56 | 40.48716 | -3.59164 | 2028 ft | 4 kts | 90° |
| 2026-05-05 09:56 | 40.48716 | -3.59154 | 2028 ft | 0 kts | 90° |